Time;durP1;ratioP1;P1;durP2;ratioP2;P2;SDS_P1;SDS_P2;PMS_P1;PMS_P2;Temp;Humidity;BMP_temperature;BMP_pressure;BME280_temperature;BME280_humidity;BME280_pressure;Samples;Min_cycle;Max_cycle;Signal;HPM_P1;HPM_P2
2023/12/16 00:01:41;;;;;;;4.23;2.43;;;;;;;-141.97;100.00;46577.41;4911209;29;20204;-90
2023/12/16 00:04:07;;;;;;;3.60;2.20;;;;;;;-141.97;100.00;46287.28;4911296;29;20665;-90
2023/12/16 00:06:32;;;;;;;3.37;1.90;;;;;;;-141.97;100.00;46588.94;4910868;28;20178;-89
2023/12/16 00:08:58;;;;;;;2.97;1.80;;;;;;;-141.97;100.00;46354.53;4910879;29;20185;-89
2023/12/16 00:11:23;;;;;;;2.73;1.87;;;;;;;-141.97;100.00;46160.47;4912135;28;20170;-89
2023/12/16 00:13:49;;;;;;;2.67;1.90;;;;;;;-141.97;100.00;46404.47;4911783;28;20166;-89
2023/12/16 00:16:14;;;;;;;3.00;2.10;;;;;;;-141.97;100.00;46235.41;4910469;28;20305;-89
2023/12/16 00:18:39;;;;;;;4.50;2.50;;;;;;;-141.97;100.00;46285.34;4926350;28;20222;-89
2023/12/16 00:21:07;;;;;;;4.43;2.40;;;;;;;-141.97;100.00;46300.72;4913027;29;20535;-89
2023/12/16 00:23:32;;;;;;;5.10;2.40;;;;;;;-141.97;100.00;46344.91;4993445;28;20678;-89
2023/12/16 00:25:58;;;;;;;5.47;2.80;;;;;;;-141.97;100.00;46717.69;4911075;29;20458;-90
2023/12/16 00:28:23;;;;;;;6.40;2.90;;;;;;;-141.97;100.00;46352.59;4911000;29;20182;-89
2023/12/16 00:30:49;;;;;;;5.13;2.83;;;;;;;-141.97;100.00;46239.25;4912642;28;20175;-90
2023/12/16 00:33:14;;;;;;;4.33;2.57;;;;;;;-141.97;100.00;46344.91;4927130;28;20581;-88
2023/12/16 00:35:40;;;;;;;3.87;2.50;;;;;;;-141.97;100.00;46335.31;4911927;29;20225;-89
2023/12/16 00:38:05;;;;;;;5.27;2.73;;;;;;;-141.97;100.00;46221.94;4934219;28;20177;-89
2023/12/16 00:40:31;;;;;;;4.97;2.97;;;;;;;-141.97;100.00;46339.16;4929255;28;20236;-89
2023/12/16 00:42:56;;;;;;;5.40;2.60;;;;;;;-141.97;100.00;46127.81;4929398;28;20185;-89
2023/12/16 00:45:22;;;;;;;5.10;2.67;;;;;;;-141.97;100.00;46116.28;4933684;28;20178;-90
2023/12/16 00:47:47;;;;;;;4.20;2.63;;;;;;;-141.97;100.00;46074.00;4917713;28;20174;-90
2023/12/16 00:50:13;;;;;;;5.60;3.10;;;;;;;-141.97;100.00;46540.91;4933041;28;20185;-90
2023/12/16 00:52:38;;;;;;;3.93;2.90;;;;;;;-141.97;100.00;46658.13;4916459;29;20185;-91
2023/12/16 00:55:04;;;;;;;5.47;2.83;;;;;;;-141.97;100.00;46719.59;4917624;29;20754;-90
2023/12/16 00:57:29;;;;;;;6.33;2.93;;;;;;;-141.97;100.00;46116.28;4918517;28;20192;-89
2023/12/16 00:59:55;;;;;;;5.53;3.20;;;;;;;-141.97;100.00;46254.59;4935854;28;20162;-90
2023/12/16 01:02:20;;;;;;;6.30;3.60;;;;;;;-141.97;100.00;46221.94;4937897;28;20220;-92
2023/12/16 01:04:46;;;;;;;6.00;3.43;;;;;;;-141.97;100.00;46369.88;4937761;28;20186;-89
2023/12/16 01:07:11;;;;;;;7.40;3.40;;;;;;;-141.97;100.00;46281.50;4937126;28;20178;-89
2023/12/16 01:09:36;;;;;;;5.57;3.60;;;;;;;-141.97;100.00;46600.47;4937299;28;20192;-90
2023/12/16 01:12:02;;;;;;;6.67;3.50;;;;;;;-141.97;100.00;46148.94;4943875;28;20190;-89
2023/12/16 01:14:28;;;;;;;7.70;3.40;;;;;;;-141.97;100.00;46120.13;4940182;28;20284;-89
2023/12/16 01:16:53;;;;;;;5.63;3.17;;;;;;;-141.97;100.00;46548.59;4942334;28;20256;-91
2023/12/16 01:19:19;;;;;;;7.17;4.00;;;;;;;-141.97;100.00;46656.19;4937024;28;20234;-91
2023/12/16 01:21:45;;;;;;;8.47;4.63;;;;;;;-141.97;100.00;46193.13;4933554;28;20174;-88
2023/12/16 01:24:11;;;;;;;22.60;13.23;;;;;;;-141.97;100.00;46131.66;4923178;28;20425;-89
2023/12/16 01:26:36;;;;;;;14.20;8.10;;;;;;;-141.97;100.00;46223.88;4928006;28;20185;-91
2023/12/16 01:29:02;;;;;;;14.67;8.30;;;;;;;-141.97;100.00;46210.41;4924700;29;20647;-89
2023/12/16 01:31:27;;;;;;;18.40;10.20;;;;;;;-141.97;100.00;46143.19;4915474;28;20199;-89
2023/12/16 01:33:53;;;;;;;18.67;10.70;;;;;;;-141.97;100.00;46512.06;4915976;28;20175;-89
2023/12/16 01:36:19;;;;;;;29.27;14.43;;;;;;;-141.97;100.00;45987.56;4913757;29;20713;-89
2023/12/16 01:38:45;;;;;;;46.33;24.63;;;;;;;-141.97;100.00;46262.28;4914866;29;20261;-89
2023/12/16 01:41:10;;;;;;;18.53;9.50;;;;;;;-141.97;100.00;46585.09;4929121;28;20430;-88
2023/12/16 01:43:36;;;;;;;18.33;8.73;;;;;;;-141.97;100.00;46562.03;4928747;28;20198;-87
2023/12/16 01:46:04;;;;;;;13.17;7.50;;;;;;;-141.97;100.00;46700.38;4914563;28;20626;-89
2023/12/16 01:48:33;;;;;;;11.43;6.33;;;;;;;-141.97;100.00;46275.75;4928729;28;20229;-89
2023/12/16 01:51:00;;;;;;;11.50;5.60;;;;;;;-141.97;100.00;46581.25;4914703;28;20421;-88
2023/12/16 01:53:27;;;;;;;16.23;8.47;;;;;;;-141.97;100.00;46346.84;4930779;28;20488;-88
2023/12/16 01:55:53;;;;;;;18.33;8.60;;;;;;;-141.97;100.00;46389.09;4928019;28;20470;-88
2023/12/16 01:58:19;;;;;;;16.07;7.87;;;;;;;-141.97;100.00;46231.56;4913149;28;20419;-87
2023/12/16 02:00:46;;;;;;;19.90;9.80;;;;;;;-141.97;100.00;46177.75;4914431;29;20431;-89
2023/12/16 02:03:14;;;;;;;23.33;10.90;;;;;;;-141.97;100.00;46271.91;4913946;29;20179;-89
2023/12/16 02:05:41;;;;;;;23.53;11.53;;;;;;;-141.97;100.00;46377.56;4912561;29;20422;-91
2023/12/16 02:08:06;;;;;;;23.47;12.00;;;;;;;-141.97;100.00;46312.25;4914671;28;20430;-90
2023/12/16 02:10:32;;;;;;;10.93;5.40;;;;;;;-141.97;100.00;46759.97;4915139;28;20942;-90
2023/12/16 02:13:01;;;;;;;18.67;10.00;;;;;;;-141.97;100.00;46193.13;4929284;28;20657;-91
2023/12/16 02:15:26;;;;;;;13.70;8.23;;;;;;;-141.97;100.00;46377.56;4913509;29;20214;-91
2023/12/16 02:17:52;;;;;;;12.07;7.13;;;;;;;-141.97;100.00;46266.13;4914220;28;20476;-90
2023/12/16 02:20:17;;;;;;;10.37;6.20;;;;;;;-141.97;100.00;46183.53;4913087;28;20273;-89
2023/12/16 02:22:46;;;;;;;5.93;3.90;;;;;;;-141.97;100.00;46362.22;4913650;28;20193;-91
2023/12/16 02:25:12;;;;;;;6.07;3.43;;;;;;;-141.97;100.00;46248.84;4928870;28;20182;-90
2023/12/16 02:27:37;;;;;;;7.13;3.93;;;;;;;-141.97;100.00;46392.94;4929362;28;20423;-91
2023/12/16 02:30:03;;;;;;;6.77;3.90;;;;;;;-141.97;100.00;46173.91;4929596;28;20183;-90
2023/12/16 02:32:29;;;;;;;10.93;6.37;;;;;;;-141.97;100.00;46193.13;4911924;29;20228;-88
2023/12/16 02:34:54;;;;;;;14.40;8.60;;;;;;;-141.97;100.00;46358.38;4911714;28;20457;-89
2023/12/16 02:37:20;;;;;;;12.97;7.33;;;;;;;-141.97;100.00;46133.56;4912803;28;20174;-90
2023/12/16 02:39:45;;;;;;;14.03;6.73;;;;;;;-141.97;100.00;46293.03;4912557;29;20170;-91
2023/12/16 02:42:11;;;;;;;9.73;5.10;;;;;;;-141.97;100.00;46256.53;4927288;28;20289;-93
2023/12/16 02:44:36;;;;;;;6.67;2.97;;;;;;;-141.97;100.00;46621.59;4913090;28;20178;-90
2023/12/16 02:47:02;;;;;;;5.73;2.90;;;;;;;-141.97;100.00;46554.34;4912834;29;20182;-90
2023/12/16 02:49:28;;;;;;;5.23;2.80;;;;;;;-141.97;100.00;46389.09;4930115;28;20178;-90
2023/12/16 02:51:54;;;;;;;6.37;3.43;;;;;;;-141.97;100.00;46350.69;4930809;28;20184;-91
2023/12/16 02:54:19;;;;;;;7.10;3.70;;;;;;;-141.97;100.00;46702.31;5023703;28;20513;-90
2023/12/16 02:56:45;;;;;;;8.60;4.10;;;;;;;-141.97;100.00;46246.94;5014105;28;20618;-90
2023/12/16 02:59:10;;;;;;;8.93;4.60;;;;;;;-141.97;100.00;46748.44;5013085;28;20179;-91
2023/12/16 03:01:35;;;;;;;8.00;3.97;;;;;;;-141.97;100.00;46319.94;5016396;28;20166;-90
2023/12/16 03:04:01;;;;;;;10.20;5.00;;;;;;;-141.97;100.00;46435.22;5012470;28;20178;-90
2023/12/16 03:06:27;;;;;;;10.73;5.03;;;;;;;-141.97;100.00;46212.34;5030940;28;20616;-89
2023/12/16 03:08:52;;;;;;;10.70;4.77;;;;;;;-141.97;100.00;46045.19;5017271;28;20257;-88
2023/12/16 03:11:18;;;;;;;9.63;4.77;;;;;;;-141.97;100.00;46239.25;5018113;28;20874;-89
2023/12/16 03:13:44;;;;;;;11.83;5.53;;;;;;;-141.97;100.00;46331.47;5013127;28;20174;-89
2023/12/16 03:16:10;;;;;;;11.53;5.57;;;;;;;-141.97;100.00;46660.03;5014383;28;20686;-87
2023/12/16 03:18:35;;;;;;;11.70;5.90;;;;;;;-141.97;100.00;46439.06;5029262;28;20606;-89
2023/12/16 03:21:04;;;;;;;13.17;6.67;;;;;;;-141.97;100.00;46792.63;5020157;28;20979;-89
2023/12/16 03:23:30;;;;;;;13.53;6.97;;;;;;;-141.97;100.00;46160.47;5027619;28;20174;-90
2023/12/16 03:25:56;;;;;;;11.77;6.00;;;;;;;-141.97;100.00;46408.31;5014953;28;20410;-89
2023/12/16 03:28:21;;;;;;;10.27;5.40;;;;;;;-141.97;100.00;46740.75;5018083;28;20201;-90
2023/12/16 03:30:46;;;;;;;9.57;4.77;;;;;;;-141.97;100.00;46736.91;5010874;28;20253;-92
2023/12/16 03:33:12;;;;;;;9.77;5.33;;;;;;;-141.97;100.00;46344.91;5010898;28;20253;-89
2023/12/16 03:35:37;;;;;;;10.70;4.60;;;;;;;-141.97;100.00;46734.97;5009819;28;20238;-90
2023/12/16 03:38:03;;;;;;;14.13;5.57;;;;;;;-141.97;100.00;46419.84;5011510;28;20170;-90
2023/12/16 03:40:29;;;;;;;12.90;5.23;;;;;;;-141.97;100.00;46702.31;5009746;28;20297;-89
2023/12/16 03:42:55;;;;;;;10.97;5.20;;;;;;;-141.97;100.00;46419.84;5009938;28;20178;-90
2023/12/16 03:45:21;;;;;;;10.07;4.67;;;;;;;-141.97;100.00;46193.13;5010975;28;20438;-90
2023/12/16 03:47:46;;;;;;;8.20;3.90;;;;;;;-141.97;100.00;46615.84;5009425;28;20647;-89
2023/12/16 03:50:12;;;;;;;6.13;3.27;;;;;;;-141.97;100.00;46698.47;5017963;28;20167;-89
2023/12/16 03:52:37;;;;;;;7.50;3.80;;;;;;;-141.97;100.00;46204.66;5016526;28;20174;-90
2023/12/16 03:55:03;;;;;;;9.53;4.03;;;;;;;-141.97;100.00;46694.63;5011099;28;20233;-90
2023/12/16 03:57:29;;;;;;;8.63;3.93;;;;;;;-141.97;100.00;46112.44;5011505;28;20233;-91
2023/12/16 03:59:56;;;;;;;7.73;3.53;;;;;;;-141.97;100.00;46471.72;5009762;28;20170;-91
2023/12/16 04:02:22;;;;;;;8.77;3.60;;;;;;;-141.97;100.00;46193.13;5009491;28;20417;-89
2023/12/16 04:04:47;;;;;;;7.10;3.40;;;;;;;-141.97;100.00;46654.28;5011391;28;20922;-90
2023/12/16 04:07:13;;;;;;;9.90;3.83;;;;;;;-141.97;100.00;46183.53;5010122;28;20167;-90
2023/12/16 04:09:39;;;;;;;9.80;4.37;;;;;;;-141.97;100.00;46394.88;5026937;28;20614;-89
2023/12/16 04:12:06;;;;;;;8.97;4.73;;;;;;;-141.97;100.00;46289.19;5015907;28;20155;-91
2023/12/16 04:14:41;;;;;;;10.33;4.33;;;;;;;-141.97;100.00;46640.81;5030759;28;20461;-88
2023/12/16 04:17:06;;;;;;;12.67;5.87;;;;;;;-141.97;100.00;46318.00;5015608;28;20512;-89
2023/12/16 04:19:32;;;;;;;10.20;5.03;;;;;;;-141.97;100.00;46304.56;5018341;28;20413;-89
2023/12/16 04:21:58;;;;;;;9.30;4.23;;;;;;;-141.97;100.00;46172.00;5018705;28;20309;-89
2023/12/16 04:24:23;;;;;;;10.60;4.40;;;;;;;-141.97;100.00;46579.31;5015092;28;20174;-89
2023/12/16 04:26:49;;;;;;;11.70;5.30;;;;;;;-141.97;100.00;46129.72;5016359;28;20232;-89
2023/12/16 04:29:15;;;;;;;10.70;5.20;;;;;;;-141.97;100.00;46658.13;5015143;28;20171;-89
2023/12/16 04:31:41;;;;;;;10.73;5.50;;;;;;;-141.97;100.00;46323.78;5015886;28;20163;-91
2023/12/16 04:34:06;;;;;;;12.00;5.43;;;;;;;-141.97;100.00;46227.72;5015736;28;20405;-91
2023/12/16 04:36:32;;;;;;;8.60;4.17;;;;;;;-141.97;100.00;46454.44;5018392;28;20188;-91
2023/12/16 04:38:57;;;;;;;12.47;5.57;;;;;;;-141.97;100.00;46433.28;5014245;28;20325;-90
2023/12/16 04:41:23;;;;;;;10.97;4.57;;;;;;;-141.97;100.00;46652.34;5018653;28;20258;-89
2023/12/16 04:43:48;;;;;;;12.43;6.10;;;;;;;-141.97;100.00;46725.38;5018103;28;20228;-88
2023/12/16 04:46:20;;;;;;;13.90;6.43;;;;;;;-141.97;100.00;46148.94;5017471;28;20189;-88
2023/12/16 04:48:45;;;;;;;15.83;6.70;;;;;;;-141.97;100.00;46304.56;5015705;28;20241;-90
2023/12/16 04:51:10;;;;;;;15.53;6.87;;;;;;;-141.97;100.00;46231.56;5035530;28;20414;-91
2023/12/16 04:53:36;;;;;;;27.13;12.47;;;;;;;-141.97;100.00;46654.28;5030465;28;20175;-89
2023/12/16 04:56:02;;;;;;;12.23;5.70;;;;;;;-141.97;100.00;46790.69;5018949;28;20210;-89
2023/12/16 04:58:29;;;;;;;17.33;7.70;;;;;;;-141.97;100.00;46515.91;5019382;28;20244;-90
2023/12/16 05:00:54;;;;;;;15.13;6.43;;;;;;;-141.97;100.00;46108.59;5021730;28;20171;-88
2023/12/16 05:03:20;;;;;;;19.43;9.17;;;;;;;-141.97;100.00;46590.84;5018780;28;20428;-88
2023/12/16 05:05:45;;;;;;;27.50;13.63;;;;;;;-141.97;100.00;46239.25;5020154;28;20624;-87
2023/12/16 05:08:11;;;;;;;17.07;7.40;;;;;;;-141.97;100.00;46293.03;5016691;28;20531;-89
2023/12/16 05:10:37;;;;;;;24.57;11.10;;;;;;;-141.97;100.00;46808.00;5031687;28;20183;-88
2023/12/16 05:13:02;;;;;;;18.43;7.80;;;;;;;-141.97;100.00;46462.13;5016799;28;20185;-88
2023/12/16 05:15:28;;;;;;;34.70;15.60;;;;;;;-141.97;100.00;46319.94;5030203;28;20212;-86
2023/12/16 05:17:53;;;;;;;43.00;19.03;;;;;;;-141.97;100.00;46719.59;5032418;28;20392;-88
2023/12/16 05:20:19;;;;;;;42.20;20.63;;;;;;;-141.97;100.00;46254.59;5034251;28;20278;-89
2023/12/16 05:22:44;;;;;;;39.47;19.57;;;;;;;-141.97;100.00;46677.31;5035051;28;20155;-89
2023/12/16 05:25:10;;;;;;;35.67;17.93;;;;;;;-141.97;100.00;46337.22;5036038;28;20177;-88
2023/12/16 05:27:35;;;;;;;65.90;30.17;;;;;;;-141.97;100.00;46448.66;5017153;28;20171;-88
2023/12/16 05:30:02;;;;;;;24.00;11.93;;;;;;;-141.97;100.00;46667.72;5018632;28;20171;-89
2023/12/16 05:32:27;;;;;;;45.37;21.17;;;;;;;-141.97;100.00;46685.00;5016379;28;20234;-89
2023/12/16 05:34:56;;;;;;;39.20;16.93;;;;;;;-141.97;100.00;46385.25;5018591;28;20497;-88
2023/12/16 05:37:22;;;;;;;23.07;10.87;;;;;;;-141.97;100.00;46175.84;5020310;28;20171;-91
2023/12/16 05:39:47;;;;;;;27.97;12.57;;;;;;;-141.97;100.00;46266.13;5017912;28;20532;-89
2023/12/16 05:42:13;;;;;;;40.00;16.70;;;;;;;-141.97;100.00;46377.56;5015650;28;20241;-89
2023/12/16 05:44:38;;;;;;;41.37;18.27;;;;;;;-141.97;100.00;46623.53;5015235;28;20178;-89
2023/12/16 05:47:06;;;;;;;77.50;30.80;;;;;;;-141.97;100.00;46431.38;5017724;28;20175;-90
2023/12/16 05:49:31;;;;;;;82.57;31.10;;;;;;;-141.97;100.00;46612.00;5016579;28;20177;-90
2023/12/16 05:51:57;;;;;;;42.10;15.97;;;;;;;-141.97;100.00;46204.66;5020361;28;20421;-89
2023/12/16 05:54:25;;;;;;;22.57;9.10;;;;;;;-141.97;100.00;46181.59;5020245;28;20749;-89
2023/12/16 05:56:51;;;;;;;54.93;25.03;;;;;;;-141.97;100.00;46195.06;5021419;28;20297;-89
2023/12/16 05:59:17;;;;;;;41.63;19.57;;;;;;;-141.97;100.00;46448.66;5023127;28;20879;-89
2023/12/16 06:01:44;;;;;;;28.80;14.73;;;;;;;-141.97;100.00;46196.97;5021126;28;20187;-89
2023/12/16 06:04:09;;;;;;;23.90;11.27;;;;;;;-141.97;100.00;46462.13;5021748;28;20433;-89
2023/12/16 06:06:35;;;;;;;22.10;10.57;;;;;;;-141.97;100.00;46387.19;5036131;28;20429;-89
2023/12/16 06:09:00;;;;;;;27.67;11.30;;;;;;;-141.97;100.00;46235.41;5021024;28;20179;-89
2023/12/16 06:11:26;;;;;;;46.63;18.10;;;;;;;-141.97;100.00;46727.28;5019434;28;20238;-88
2023/12/16 06:13:51;;;;;;;43.70;18.17;;;;;;;-141.97;100.00;46444.81;5018838;28;20171;-89
2023/12/16 06:16:17;;;;;;;25.93;12.43;;;;;;;-141.97;100.00;46179.69;5041951;28;20195;-91
2023/12/16 06:18:44;;;;;;;46.73;19.43;;;;;;;-141.97;100.00;46366.06;5018598;28;20262;-90
2023/12/16 06:21:09;;;;;;;33.83;14.77;;;;;;;-141.97;100.00;46260.38;5034459;28;20205;-91
2023/12/16 06:23:35;;;;;;;23.23;10.70;;;;;;;-141.97;100.00;46074.00;5019943;28;20398;-92
2023/12/16 06:26:01;;;;;;;35.37;18.30;;;;;;;-141.97;100.00;46631.22;5019591;28;20171;-93
2023/12/16 06:28:26;;;;;;;31.53;15.60;;;;;;;-141.97;100.00;46437.13;5017774;28;20557;-91
2023/12/16 06:30:52;;;;;;;35.13;17.07;;;;;;;-141.97;100.00;46054.81;5016174;28;20170;-90
2023/12/16 06:33:17;;;;;;;39.77;20.33;;;;;;;-141.97;100.00;46442.91;5019113;28;20312;-89
2023/12/16 06:35:43;;;;;;;60.27;28.10;;;;;;;-141.97;100.00;46239.25;5032227;28;20187;-90
2023/12/16 06:38:09;;;;;;;24.27;11.43;;;;;;;-141.97;100.00;46600.47;5021974;28;20187;-89
2023/12/16 06:40:34;;;;;;;22.20;10.77;;;;;;;-141.97;100.00;46404.47;5017778;28;20787;-90
2023/12/16 06:43:00;;;;;;;50.97;25.23;;;;;;;-141.97;100.00;46400.63;5017294;28;20171;-89
2023/12/16 06:45:25;;;;;;;75.57;35.20;;;;;;;-141.97;100.00;46346.84;5017287;28;20233;-90
2023/12/16 06:47:51;;;;;;;32.73;16.53;;;;;;;-141.97;100.00;46377.56;5013936;28;20162;-88
2023/12/16 06:50:16;;;;;;;44.80;22.57;;;;;;;-141.97;100.00;46298.81;5012534;28;20167;-89
2023/12/16 06:52:42;;;;;;;37.87;17.50;;;;;;;-141.97;100.00;46271.91;5011762;28;20189;-90
2023/12/16 06:55:08;;;;;;;39.60;20.60;;;;;;;-141.97;100.00;46208.50;5011512;28;20263;-90
2023/12/16 06:57:33;;;;;;;75.50;37.90;;;;;;;-141.97;100.00;46210.41;5015163;28;20217;-90
2023/12/16 06:59:59;;;;;;;175.17;74.37;;;;;;;-141.97;100.00;46569.72;5014206;28;20406;-88
2023/12/16 07:02:25;;;;;;;48.23;22.23;;;;;;;-141.97;100.00;46289.19;5027387;28;20651;-86
2023/12/16 07:04:51;;;;;;;44.53;22.23;;;;;;;-141.97;100.00;46675.41;5012313;28;20605;-88
2023/12/16 07:07:16;;;;;;;38.83;19.30;;;;;;;-141.97;100.00;46369.88;5011223;28;20578;-89
2023/12/16 07:09:42;;;;;;;53.23;27.00;;;;;;;-141.97;100.00;46358.38;5013000;28;20198;-87
2023/12/16 07:12:07;;;;;;;184.57;70.70;;;;;;;-141.97;100.00;46237.31;5014149;28;20599;-88
2023/12/16 07:14:34;;;;;;;136.63;52.63;;;;;;;-141.97;100.00;46688.84;5012452;28;20237;-89
2023/12/16 07:16:59;;;;;;;64.37;29.63;;;;;;;-141.97;100.00;46329.53;5013436;28;20205;-89
2023/12/16 07:19:25;;;;;;;41.70;21.00;;;;;;;-141.97;100.00;46339.16;5012462;28;20494;-88
2023/12/16 07:21:50;;;;;;;116.83;41.13;;;;;;;-141.97;100.00;46223.88;5011450;28;20167;-87
2023/12/16 07:24:16;;;;;;;86.13;34.67;;;;;;;-141.97;100.00;46373.72;5011349;28;20214;-87
2023/12/16 07:26:41;;;;;;;67.23;30.47;;;;;;;-141.97;100.00;46341.06;5011929;28;20163;-88
2023/12/16 07:29:07;;;;;;;51.87;25.43;;;;;;;-141.97;100.00;46281.50;5012501;28;20545;-87
2023/12/16 07:31:33;;;;;;;39.70;18.17;;;;;;;-141.97;100.00;46381.41;5010071;28;20420;-90
2023/12/16 07:33:58;;;;;;;58.93;25.97;;;;;;;-141.97;100.00;46193.13;5009819;28;20332;-88
2023/12/16 07:36:23;;;;;;;135.33;52.10;;;;;;;-141.97;100.00;46323.78;5011302;28;20191;-88
2023/12/16 07:38:49;;;;;;;77.50;33.10;;;;;;;-141.97;100.00;46162.38;5011573;28;20627;-88
2023/12/16 07:41:14;;;;;;;96.53;35.13;;;;;;;-141.97;100.00;46331.47;5025175;28;20173;-88
2023/12/16 07:43:41;;;;;;;67.50;26.83;;;;;;;-141.97;100.00;46260.38;5011611;28;20691;-90
2023/12/16 07:46:06;;;;;;;47.40;21.07;;;;;;;-141.97;100.00;46327.63;5013178;28;20209;-88
2023/12/16 07:48:33;;;;;;;55.53;24.97;;;;;;;-141.97;100.00;46381.41;5018630;28;20406;-90
2023/12/16 07:50:58;;;;;;;109.00;49.43;;;;;;;-141.97;100.00;46756.13;5016556;28;20162;-90
2023/12/16 07:53:24;;;;;;;164.07;73.73;;;;;;;-141.97;100.00;46385.25;5015893;28;20421;-92
2023/12/16 07:55:49;;;;;;;53.90;25.53;;;;;;;-141.97;100.00;46221.94;5014760;28;20218;-90
2023/12/16 07:58:16;;;;;;;700.83;365.63;;;;;;;-141.97;100.00;46675.41;5011424;28;20281;-90
2023/12/16 08:00:42;;;;;;;463.43;217.47;;;;;;;-141.97;100.00;46544.75;5019788;28;20944;-90
2023/12/16 08:03:07;;;;;;;340.53;134.93;;;;;;;-141.97;100.00;46122.03;5015056;28;20209;-90
2023/12/16 08:05:33;;;;;;;76.07;30.87;;;;;;;-141.97;100.00;46100.91;5015280;28;20189;-89
2023/12/16 08:07:59;;;;;;;107.40;45.77;;;;;;;-141.97;100.00;46029.81;5014929;28;20605;-89
2023/12/16 08:10:24;;;;;;;142.27;61.73;;;;;;;-141.97;100.00;46323.78;5014667;28;20161;-90
2023/12/16 08:12:50;;;;;;;131.40;52.97;;;;;;;-141.97;100.00;46631.22;5014799;28;20167;-88
2023/12/16 08:15:16;;;;;;;83.17;31.33;;;;;;;-141.97;100.00;46168.16;5028666;28;20201;-90
2023/12/16 08:17:42;;;;;;;56.43;21.90;;;;;;;-141.97;100.00;46035.59;5029481;28;20249;-91
2023/12/16 08:20:08;;;;;;;65.97;23.03;;;;;;;-141.97;100.00;46181.59;5031112;28;20437;-89
2023/12/16 08:22:34;;;;;;;82.00;27.33;;;;;;;-141.97;100.00;46402.56;5012211;28;20564;-88
2023/12/16 08:25:00;;;;;;;50.40;23.43;;;;;;;-141.97;100.00;46742.66;5013070;28;20492;-88
2023/12/16 08:27:25;;;;;;;54.23;24.87;;;;;;;-141.97;100.00;46631.22;5014463;28;20929;-90
2023/12/16 08:29:51;;;;;;;88.37;32.50;;;;;;;-141.97;100.00;46147.03;5016012;28;20686;-88
2023/12/16 08:32:16;;;;;;;91.73;41.90;;;;;;;-141.97;100.00;46166.22;5012372;28;20645;-88
2023/12/16 08:34:42;;;;;;;76.03;35.90;;;;;;;-141.97;100.00;46733.06;5011448;28;20205;-89
2023/12/16 08:37:07;;;;;;;41.23;18.03;;;;;;;-141.97;100.00;46462.13;5013325;28;20182;-89
2023/12/16 08:39:33;;;;;;;43.87;19.57;;;;;;;-141.97;100.00;46740.75;5011757;28;20638;-89
2023/12/16 08:41:59;;;;;;;46.27;22.87;;;;;;;-141.97;100.00;46162.38;5024095;28;20195;-89
2023/12/16 08:44:24;;;;;;;43.80;19.57;;;;;;;-141.97;100.00;46227.72;5031645;28;20238;-90
2023/12/16 08:46:49;;;;;;;62.77;26.37;;;;;;;-141.97;100.00;46773.41;5014343;28;20233;-88
2023/12/16 08:49:15;;;;;;;64.97;24.23;;;;;;;-141.97;100.00;46412.16;5010343;28;20171;-88
2023/12/16 08:51:41;;;;;;;47.17;20.03;;;;;;;-141.97;100.00;46788.78;5010438;28;20171;-90
2023/12/16 08:54:06;;;;;;;32.50;15.60;;;;;;;-141.97;100.00;46323.78;5010770;28;20271;-88
2023/12/16 08:56:32;;;;;;;24.40;12.50;;;;;;;-141.97;100.00;46412.16;5011285;28;20194;-89
2023/12/16 08:58:57;;;;;;;31.70;14.47;;;;;;;-141.97;100.00;46736.91;5014246;28;20536;-88
2023/12/16 09:01:23;;;;;;;44.90;19.90;;;;;;;-141.97;100.00;46343.00;5013492;28;20170;-88
2023/12/16 09:03:48;;;;;;;54.47;25.70;;;;;;;-141.97;100.00;46671.56;5012463;28;20171;-88
2023/12/16 09:06:14;;;;;;;52.70;25.60;;;;;;;-141.97;100.00;46173.91;5014078;28;20159;-87
2023/12/16 09:08:39;;;;;;;63.10;29.67;;;;;;;-141.97;100.00;46460.19;5014321;28;20173;-89
2023/12/16 09:11:09;;;;;;;33.13;16.13;;;;;;;-141.97;100.00;46423.69;5012542;28;20172;-85
2023/12/16 09:13:35;;;;;;;25.87;13.33;;;;;;;-141.97;100.00;46419.84;5026390;28;20472;-88
2023/12/16 09:16:01;;;;;;;23.90;12.30;;;;;;;-141.97;100.00;46318.00;5034159;28;20432;-88
2023/12/16 09:18:26;;;;;;;26.80;13.10;;;;;;;-141.97;100.00;46220.03;5031115;28;20626;-88
2023/12/16 09:20:52;;;;;;;45.30;19.90;;;;;;;-141.97;100.00;46464.03;5025696;28;20178;-88
2023/12/16 09:23:17;;;;;;;51.27;22.20;;;;;;;-141.97;100.00;46377.56;5017058;28;20171;-85
2023/12/16 09:25:43;;;;;;;56.53;25.33;;;;;;;-141.97;100.00;46773.41;5013670;28;20314;-84
2023/12/16 09:28:09;;;;;;;61.83;26.33;;;;;;;-141.97;100.00;46377.56;5015363;28;20166;-88
2023/12/16 09:30:34;;;;;;;113.63;48.90;;;;;;;-141.97;100.00;46446.75;5013528;28;20544;-86
2023/12/16 09:33:00;;;;;;;91.57;39.73;;;;;;;-141.97;100.00;46583.16;4924584;28;20360;-88
2023/12/16 09:35:25;;;;;;;61.37;28.10;;;;;;;-141.97;100.00;46565.88;4914913;29;20198;-88
2023/12/16 09:37:51;;;;;;;53.40;22.37;;;;;;;-141.97;100.00;46412.16;4914490;29;20178;-87
2023/12/16 09:40:16;;;;;;;94.57;39.77;;;;;;;-141.97;100.00;46310.31;4912756;28;20252;-87
2023/12/16 09:42:43;;;;;;;101.47;43.77;;;;;;;-141.97;100.00;46316.09;4914890;29;20826;-87
2023/12/16 09:45:12;;;;;;;58.80;29.73;;;;;;;-141.97;100.00;46619.69;4913976;29;20685;-87
2023/12/16 09:47:38;;;;;;;41.50;17.90;;;;;;;-141.97;100.00;46733.06;4925960;29;20425;-88
2023/12/16 09:50:05;;;;;;;44.77;21.63;;;;;;;-141.97;100.00;46439.06;4932102;29;20422;-86
2023/12/16 09:52:30;;;;;;;55.73;26.23;;;;;;;-141.97;100.00;46627.38;4911740;29;20181;-88
2023/12/16 09:54:56;;;;;;;62.43;32.17;;;;;;;-141.97;100.00;46341.06;4915110;29;20454;-88
2023/12/16 09:57:23;;;;;;;85.73;40.37;;;;;;;-141.97;100.00;46335.31;4912218;28;20174;-87
2023/12/16 09:59:51;;;;;;;78.93;35.17;;;;;;;-141.97;100.00;46337.22;4913170;28;20174;-89
2023/12/16 10:02:27;;;;;;;71.13;30.67;;;;;;;-141.97;100.00;46744.59;4912136;29;20415;-87
2023/12/16 10:04:56;;;;;;;76.83;34.10;;;;;;;-141.97;100.00;46296.88;4913445;29;20501;-86
2023/12/16 10:07:22;;;;;;;117.10;53.07;;;;;;;-141.97;100.00;46400.63;4914616;29;20411;-88
2023/12/16 10:09:47;;;;;;;67.17;27.87;;;;;;;-141.97;100.00;46412.16;4929500;29;20488;-88
2023/12/16 10:12:13;;;;;;;62.10;27.13;;;;;;;-141.97;100.00;46398.72;4912892;29;20182;-88
2023/12/16 10:14:47;;;;;;;73.73;32.40;;;;;;;-141.97;100.00;46229.63;4914159;29;20178;-89
2023/12/16 10:17:18;;;;;;;87.43;38.27;;;;;;;-141.97;100.00;46427.53;4926886;28;20198;-87
2023/12/16 10:19:44;;;;;;;60.20;26.03;;;;;;;-141.97;100.00;46208.50;4913529;29;20407;-89
2023/12/16 10:22:12;;;;;;;67.33;30.03;;;;;;;-141.97;100.00;46127.81;4912947;29;20406;-86
2023/12/16 10:24:41;;;;;;;62.63;26.07;;;;;;;-141.97;100.00;46229.63;4927826;29;20493;-89
2023/12/16 10:27:07;;;;;;;54.80;26.00;;;;;;;-141.97;100.00;46389.09;4918836;29;20403;-89
2023/12/16 10:29:33;;;;;;;73.43;31.23;;;;;;;-141.97;100.00;46364.13;4912854;29;20493;-88
2023/12/16 10:31:59;;;;;;;63.50;26.57;;;;;;;-141.97;100.00;46231.56;4911508;29;20891;-87
2023/12/16 10:34:29;;;;;;;81.33;31.73;;;;;;;-141.97;100.00;46323.78;4913138;29;20162;-88
2023/12/16 10:37:05;;;;;;;86.33;37.73;;;;;;;-141.97;100.00;46629.28;4911851;29;20429;-86
2023/12/16 10:39:32;;;;;;;76.50;32.27;;;;;;;-141.97;100.00;46350.69;4912482;29;20414;-86
2023/12/16 10:41:57;;;;;;;98.93;40.37;;;;;;;-141.97;100.00;46364.13;4911508;29;20505;-87
2023/12/16 10:44:23;;;;;;;85.03;34.60;;;;;;;-141.97;100.00;46122.03;4911760;28;20922;-87
2023/12/16 10:46:51;;;;;;;108.60;40.63;;;;;;;-141.97;100.00;46273.81;4911119;28;20186;-86
2023/12/16 10:49:17;;;;;;;106.93;38.40;;;;;;;-141.97;100.00;46369.88;4910850;29;20170;-88
2023/12/16 10:51:55;;;;;;;98.23;38.30;;;;;;;-141.97;100.00;46287.28;4912247;29;20418;-86
2023/12/16 10:54:28;;;;;;;136.07;48.10;;;;;;;-141.97;100.00;46827.22;4911150;29;20197;-88